createdAt,value
2022-07-25T00:01:06.891Z,6.97
2022-07-25T00:03:33.406Z,6.68
2022-07-25T00:05:59.847Z,6.80
2022-07-25T00:08:28.552Z,6.18
2022-07-25T00:10:54.990Z,6.97
2022-07-25T00:13:21.463Z,6.95
2022-07-25T00:15:47.934Z,6.65
2022-07-25T00:18:19.945Z,6.13
2022-07-25T00:20:47.131Z,6.88
2022-07-25T00:23:13.657Z,7.15
2022-07-25T00:25:40.059Z,7.15
2022-07-25T00:28:06.553Z,7.35
2022-07-25T00:30:35.290Z,7.00
2022-07-25T00:33:01.721Z,6.22
2022-07-25T00:35:28.130Z,6.47
2022-07-25T00:37:57.006Z,6.00
2022-07-25T00:40:25.760Z,5.78
2022-07-25T00:42:54.676Z,5.95
2022-07-25T00:45:23.708Z,6.30
2022-07-25T00:47:50.124Z,6.07
2022-07-25T00:50:16.566Z,7.10
2022-07-25T00:52:43.040Z,6.70
2022-07-25T00:55:12.222Z,6.30
2022-07-25T00:57:38.654Z,7.03
2022-07-25T01:00:10.798Z,6.30
2022-07-25T01:02:37.354Z,6.57
2022-07-25T01:05:05.467Z,6.25
2022-07-25T01:07:32.636Z,6.18
2022-07-25T01:10:03.877Z,6.00
2022-07-25T01:12:30.420Z,6.50
2022-07-25T01:14:57.677Z,5.50
2022-07-25T01:17:24.675Z,6.32
2022-07-25T01:19:55.972Z,6.63
2022-07-25T01:22:22.479Z,6.38
2022-07-25T01:24:51.244Z,6.78
2022-07-25T01:27:20.334Z,6.70
2022-07-25T01:29:46.796Z,6.47
2022-07-25T01:32:15.722Z,6.75
2022-07-25T01:34:44.426Z,5.78
2022-07-25T01:37:10.828Z,6.03
2022-07-25T01:39:37.229Z,5.50
2022-07-25T01:42:03.864Z,5.90
2022-07-25T01:44:30.871Z,5.85
2022-07-25T01:46:57.323Z,6.20
2022-07-25T01:49:26.747Z,6.22
2022-07-25T01:51:53.254Z,6.43
2022-07-25T01:54:19.693Z,5.95
2022-07-25T01:56:49.760Z,5.88
2022-07-25T01:59:18.548Z,6.40
2022-07-25T02:01:45.112Z,5.95
2022-07-25T02:04:11.951Z,5.90
2022-07-25T02:06:41.361Z,5.82
2022-07-25T02:09:08.564Z,5.93
2022-07-25T02:11:39.902Z,6.13
2022-07-25T02:14:09.137Z,6.90
2022-07-25T02:16:37.904Z,5.68
2022-07-25T02:19:04.561Z,5.95
2022-07-25T02:21:31.041Z,6.00
2022-07-25T02:23:59.879Z,6.13
2022-07-25T02:26:26.387Z,6.38
2022-07-25T02:28:53.107Z,6.50
2022-07-25T02:31:22.035Z,5.80
2022-07-25T02:33:48.597Z,6.57
2022-07-25T02:36:17.289Z,5.80
2022-07-25T02:38:43.759Z,6.25
2022-07-25T02:41:12.656Z,5.40
2022-07-25T02:43:39.137Z,5.63
2022-07-25T02:46:05.734Z,6.47
2022-07-25T02:48:34.674Z,6.22
2022-07-25T02:51:03.536Z,6.45
2022-07-25T02:53:54.923Z,6.20
2022-07-25T02:56:18.720Z,5.70
2022-07-25T02:58:47.866Z,6.35
2022-07-25T03:01:16.734Z,6.13
2022-07-25T03:03:45.521Z,5.78
2022-07-25T03:06:14.182Z,6.20
2022-07-25T03:08:42.891Z,6.50
2022-07-25T03:11:11.617Z,5.95
2022-07-25T03:13:38.052Z,6.32
2022-07-25T03:16:04.799Z,5.75
2022-07-25T03:18:33.253Z,5.85
2022-07-25T03:21:04.656Z,6.20
2022-07-25T03:23:33.597Z,5.47
2022-07-25T03:26:00.026Z,5.93
2022-07-25T03:28:26.472Z,6.28
2022-07-25T03:30:53.141Z,6.32
2022-07-25T03:33:19.666Z,5.03
2022-07-25T03:35:46.243Z,6.25
2022-07-25T03:38:12.662Z,5.93
2022-07-25T03:40:39.517Z,5.82
2022-07-25T03:43:08.742Z,6.50
2022-07-25T03:45:35.279Z,6.13
2022-07-25T03:48:02.065Z,5.70
2022-07-25T03:50:28.471Z,5.53
2022-07-25T03:52:57.032Z,6.22
2022-07-25T03:55:23.618Z,6.07
2022-07-25T03:57:50.332Z,5.97
2022-07-25T04:00:17.652Z,5.65
2022-07-25T04:02:46.857Z,6.30
2022-07-25T04:05:15.843Z,6.72
2022-07-25T04:07:42.291Z,6.35
2022-07-25T04:10:11.622Z,5.95
2022-07-25T04:12:38.917Z,6.18
2022-07-25T04:15:08.501Z,6.15
2022-07-25T04:17:39.471Z,6.82
2022-07-25T04:20:08.934Z,6.40
2022-07-25T04:22:39.304Z,6.10
2022-07-25T04:25:08.920Z,6.55
2022-07-25T04:27:35.357Z,6.00
2022-07-25T04:30:01.775Z,5.82
2022-07-25T04:32:28.233Z,6.40
2022-07-25T04:34:57.139Z,6.88
2022-07-25T04:37:23.630Z,6.72
2022-07-25T04:39:52.358Z,7.32
2022-07-25T04:42:18.765Z,7.03
2022-07-25T04:44:45.187Z,6.60
2022-07-25T04:47:11.629Z,5.57
2022-07-25T04:49:38.036Z,6.15
2022-07-25T04:52:04.647Z,5.78
2022-07-25T04:54:31.039Z,5.82
2022-07-25T04:56:58.133Z,6.15
2022-07-25T04:59:24.597Z,5.60
2022-07-25T05:01:51.206Z,5.95
2022-07-25T05:04:17.716Z,6.68
2022-07-25T05:06:49.056Z,6.53
2022-07-25T05:09:17.613Z,6.95
2022-07-25T05:11:47.981Z,6.40
2022-07-25T05:14:19.466Z,5.80
2022-07-25T05:16:50.248Z,6.43
2022-07-25T05:19:19.313Z,6.55
2022-07-25T05:21:48.091Z,6.47
2022-07-25T05:24:14.532Z,6.70
2022-07-25T05:26:41.012Z,6.30
2022-07-25T05:29:07.435Z,6.63
2022-07-25T05:31:35.974Z,6.45
2022-07-25T05:34:05.329Z,6.15
2022-07-25T05:36:32.121Z,6.65
2022-07-25T05:38:59.203Z,6.50
2022-07-25T05:41:28.168Z,7.47
2022-07-25T05:43:57.593Z,5.82
2022-07-25T05:46:26.608Z,5.80
2022-07-25T05:48:55.693Z,7.03
2022-07-25T05:51:22.197Z,5.72
2022-07-25T05:53:56.161Z,5.90
2022-07-25T05:56:22.801Z,6.82
2022-07-25T05:58:49.291Z,6.18
2022-07-25T06:01:16.209Z,5.82
2022-07-25T06:03:42.650Z,6.93
2022-07-25T06:06:09.441Z,6.03
2022-07-25T06:08:36.853Z,6.43
2022-07-25T06:11:04.929Z,5.93
2022-07-25T06:13:31.969Z,6.55
2022-07-25T06:16:03.792Z,5.22
2022-07-25T06:18:30.337Z,6.30
2022-07-25T06:20:59.560Z,5.75
2022-07-25T06:23:27.821Z,6.50
2022-07-25T06:25:54.454Z,5.90
2022-07-25T06:28:20.886Z,5.30
2022-07-25T06:30:48.140Z,6.57
2022-07-25T06:33:14.572Z,6.28
2022-07-25T06:35:43.381Z,6.78
2022-07-25T06:38:12.335Z,6.82
2022-07-25T06:40:41.283Z,5.95
2022-07-25T06:43:10.333Z,5.55
2022-07-25T06:45:36.806Z,6.82
2022-07-25T06:48:03.382Z,6.70
2022-07-25T06:50:30.066Z,6.65
2022-07-25T06:52:58.769Z,7.03
2022-07-25T06:55:27.697Z,6.88
2022-07-25T06:57:56.664Z,6.25
2022-07-25T07:00:23.219Z,6.25
2022-07-25T07:02:56.755Z,6.20
2022-07-25T07:05:28.552Z,6.40
2022-07-25T07:07:55.055Z,5.03
2022-07-25T07:10:26.875Z,5.88
2022-07-25T07:13:04.734Z,5.78
2022-07-25T07:15:34.377Z,5.68
2022-07-25T07:18:00.924Z,5.82
2022-07-25T07:20:28.134Z,5.43
2022-07-25T07:22:54.981Z,5.45
2022-07-25T07:25:24.124Z,4.95
2022-07-25T07:27:57.142Z,5.07
2022-07-25T07:30:25.945Z,5.30
2022-07-25T07:33:02.089Z,4.82
2022-07-25T07:35:30.982Z,5.43
2022-07-25T07:38:02.475Z,4.90
2022-07-25T07:40:31.541Z,5.50
2022-07-25T07:43:01.047Z,4.82
2022-07-25T07:45:30.682Z,5.32
2022-07-25T07:47:59.474Z,4.43
2022-07-25T07:50:27.704Z,5.10
2022-07-25T07:53:00.058Z,5.03
2022-07-25T07:56:05.219Z,5.22
2022-07-25T07:58:31.820Z,5.72
2022-07-25T08:00:58.538Z,4.95
2022-07-25T08:03:27.779Z,5.10
2022-07-25T08:05:58.824Z,4.82
2022-07-25T08:08:30.890Z,4.53
2022-07-25T08:10:59.197Z,5.15
2022-07-25T08:13:30.541Z,4.65
2022-07-25T08:15:59.115Z,4.65
2022-07-25T08:18:34.092Z,4.78
2022-07-25T08:21:03.374Z,4.10
2022-07-25T08:23:31.759Z,4.60
2022-07-25T08:25:58.356Z,5.47
2022-07-25T08:28:24.872Z,4.90
2022-07-25T08:30:51.508Z,4.55
2022-07-25T08:33:20.703Z,4.72
2022-07-25T08:35:49.331Z,4.53
2022-07-25T08:38:18.644Z,4.97
2022-07-25T08:40:45.116Z,5.25
2022-07-25T08:43:14.941Z,4.57
2022-07-25T08:45:46.917Z,4.45
2022-07-25T08:48:13.885Z,5.15
2022-07-25T08:50:40.623Z,5.20
2022-07-25T08:53:32.069Z,4.70
2022-07-25T08:55:58.163Z,4.38
2022-07-25T08:58:26.984Z,4.32
2022-07-25T09:00:53.482Z,4.88
2022-07-25T09:03:20.011Z,4.47
2022-07-25T09:05:48.769Z,4.38
2022-07-25T09:08:17.980Z,4.13
2022-07-25T09:10:49.719Z,4.72
2022-07-25T09:13:23.468Z,4.20
2022-07-25T09:15:56.516Z,4.65
2022-07-25T09:18:28.626Z,3.90
2022-07-25T09:20:59.089Z,4.68
2022-07-25T09:23:31.316Z,4.72
2022-07-25T09:26:14.236Z,4.75
2022-07-25T09:28:48.123Z,4.45
2022-07-25T09:31:18.885Z,4.65
2022-07-25T09:33:51.625Z,3.97
2022-07-25T09:36:18.620Z,4.35
2022-07-25T09:38:55.273Z,5.05
2022-07-25T09:41:21.835Z,4.40
2022-07-25T09:43:50.620Z,4.47
2022-07-25T09:46:17.198Z,4.53
2022-07-25T09:48:47.689Z,4.20
2022-07-25T09:51:14.188Z,5.03
2022-07-25T09:53:40.786Z,4.15
2022-07-25T09:56:08.212Z,4.72
2022-07-25T09:58:36.926Z,4.68
2022-07-25T10:01:06.820Z,4.35
2022-07-25T10:03:55.593Z,4.70
2022-07-25T10:06:26.149Z,4.43
2022-07-25T10:08:53.343Z,4.35
2022-07-25T10:11:29.935Z,5.00
2022-07-25T10:13:57.100Z,4.40
2022-07-25T10:16:27.422Z,4.40
2022-07-25T10:18:57.021Z,4.50
2022-07-25T10:21:27.642Z,4.57
2022-07-25T10:24:05.422Z,4.13
2022-07-25T10:26:33.332Z,3.65
2022-07-25T10:29:07.209Z,4.55
2022-07-25T10:31:36.026Z,4.25
2022-07-25T10:34:13.613Z,3.63
2022-07-25T10:36:57.008Z,4.10
2022-07-25T10:39:24.001Z,3.50
2022-07-25T10:41:55.863Z,3.20
2022-07-25T10:44:22.476Z,3.53
2022-07-25T10:46:51.204Z,3.20
2022-07-25T10:49:31.013Z,2.97
2022-07-25T10:52:07.874Z,3.00
2022-07-25T10:54:36.108Z,3.08
2022-07-25T10:57:04.024Z,2.95
2022-07-25T10:59:37.935Z,3.10
2022-07-25T11:02:16.584Z,3.10
2022-07-25T11:04:57.914Z,3.40
2022-07-25T11:07:24.390Z,3.08
2022-07-25T11:10:01.568Z,3.08
2022-07-25T11:12:31.182Z,2.75
2022-07-25T11:15:17.345Z,2.95
2022-07-25T11:17:50.857Z,2.50
2022-07-25T11:20:19.503Z,2.78
2022-07-25T11:22:55.768Z,2.60
2022-07-25T11:25:23.431Z,2.97
2022-07-25T11:27:56.978Z,3.20
2022-07-25T11:30:23.562Z,2.47
2022-07-25T11:32:58.831Z,2.67
2022-07-25T11:35:30.116Z,2.70
2022-07-25T11:38:01.452Z,2.90
2022-07-25T11:40:28.614Z,2.67
2022-07-25T11:43:01.534Z,2.92
2022-07-25T11:45:37.133Z,2.95
2022-07-25T11:48:16.889Z,3.30
2022-07-25T11:50:45.922Z,2.60
2022-07-25T11:53:17.161Z,2.80
2022-07-25T11:55:44.019Z,2.58
2022-07-25T11:58:12.709Z,2.83
2022-07-25T12:00:41.241Z,3.20
2022-07-25T12:03:15.557Z,3.58
2022-07-25T12:05:48.058Z,2.85
2022-07-25T12:08:18.783Z,2.88
2022-07-25T12:10:51.420Z,3.15
2022-07-25T12:13:24.701Z,3.33
2022-07-25T12:15:56.838Z,3.17
2022-07-25T12:18:23.322Z,3.03
2022-07-25T12:20:49.912Z,3.38
2022-07-25T12:23:16.583Z,3.47
2022-07-25T12:25:47.799Z,3.03
2022-07-25T12:28:16.575Z,2.88
2022-07-25T12:30:46.887Z,3.20
2022-07-25T12:33:13.943Z,3.10
2022-07-25T12:35:41.601Z,3.00
2022-07-25T12:38:08.848Z,3.33
2022-07-25T12:40:35.310Z,3.20
2022-07-25T12:43:01.773Z,3.35
2022-07-25T12:45:28.436Z,3.35
2022-07-25T12:47:55.036Z,3.35
2022-07-25T12:50:25.779Z,2.80
2022-07-25T12:52:54.656Z,2.88
2022-07-25T12:55:23.674Z,2.90
2022-07-25T12:57:50.598Z,2.90
2022-07-25T13:00:21.802Z,3.05
2022-07-25T13:02:51.210Z,3.30
2022-07-25T13:05:18.416Z,3.42
2022-07-25T13:07:48.901Z,3.08
2022-07-25T13:10:18.586Z,3.10
2022-07-25T13:12:45.379Z,3.63
2022-07-25T13:15:12.172Z,3.53
2022-07-25T13:17:41.007Z,3.70
2022-07-25T13:20:08.546Z,3.65
2022-07-25T13:22:35.063Z,3.60
2022-07-25T13:25:01.482Z,3.70
2022-07-25T13:27:27.907Z,3.55
2022-07-25T13:29:54.790Z,4.15
2022-07-25T13:32:26.444Z,3.33
2022-07-25T13:34:52.873Z,3.40
2022-07-25T13:37:21.360Z,3.60
2022-07-25T13:39:47.856Z,4.25
2022-07-25T13:42:14.384Z,3.75
2022-07-25T13:44:41.064Z,3.78
2022-07-25T13:47:10.024Z,3.53
2022-07-25T13:49:37.007Z,3.50
2022-07-25T13:52:03.814Z,4.13
2022-07-25T13:54:30.256Z,3.95
2022-07-25T13:56:57.318Z,4.30
2022-07-25T13:59:23.806Z,4.40
2022-07-25T14:01:52.894Z,4.35
2022-07-25T14:04:21.843Z,4.28
2022-07-25T14:06:51.958Z,3.90
2022-07-25T14:09:21.970Z,4.53
2022-07-25T14:11:53.068Z,4.25
2022-07-25T14:14:19.637Z,4.47
2022-07-25T14:16:46.128Z,4.82
2022-07-25T14:19:14.857Z,4.75
2022-07-25T14:21:43.806Z,4.78
2022-07-25T14:24:10.284Z,4.47
2022-07-25T14:26:38.993Z,5.03
2022-07-25T14:29:09.200Z,5.00
2022-07-25T14:31:35.979Z,4.60
2022-07-25T14:34:04.737Z,4.45
2022-07-25T14:36:37.056Z,4.60
2022-07-25T14:39:06.096Z,5.53
2022-07-25T14:41:33.150Z,4.95
2022-07-25T14:43:59.665Z,4.80
2022-07-25T14:46:26.254Z,5.53
2022-07-25T14:48:55.211Z,5.05
2022-07-25T14:51:21.744Z,5.18
2022-07-25T14:53:53.284Z,4.63
2022-07-25T14:56:24.946Z,4.75
2022-07-25T14:58:56.201Z,4.80
2022-07-25T15:01:25.252Z,5.38
2022-07-25T15:03:52.954Z,5.28
2022-07-25T15:06:28.775Z,4.95
2022-07-25T15:08:55.783Z,5.47
2022-07-25T15:11:22.577Z,4.60
2022-07-25T15:13:49.609Z,5.22
2022-07-25T15:16:19.371Z,4.45
2022-07-25T15:19:13.317Z,5.45
2022-07-25T15:21:32.289Z,5.32
2022-07-25T15:23:59.878Z,5.22
2022-07-25T15:26:26.510Z,5.30
2022-07-25T15:28:53.084Z,5.13
2022-07-25T15:31:21.430Z,5.68
2022-07-25T15:33:47.954Z,5.00
2022-07-25T15:36:14.398Z,4.93
2022-07-25T15:38:41.076Z,5.10
2022-07-25T15:41:10.424Z,5.20
2022-07-25T15:43:37.687Z,5.95
2022-07-25T15:46:06.425Z,5.10
2022-07-25T15:48:33.650Z,4.70
2022-07-25T15:51:02.552Z,4.60
2022-07-25T15:53:29.233Z,5.30
2022-07-25T15:55:55.797Z,4.70
2022-07-25T15:58:22.361Z,5.32
2022-07-25T16:00:51.171Z,4.90
2022-07-25T16:03:21.491Z,5.05
2022-07-25T16:05:50.169Z,5.45
2022-07-25T16:08:16.832Z,4.75
2022-07-25T16:10:43.544Z,4.93
2022-07-25T16:13:10.109Z,4.55
2022-07-25T16:15:39.029Z,4.80
2022-07-25T16:18:06.561Z,5.18
2022-07-25T16:20:35.844Z,5.05
2022-07-25T16:23:02.329Z,4.78
2022-07-25T16:25:29.512Z,4.95
2022-07-25T16:27:56.416Z,4.43
2022-07-25T16:30:23.267Z,4.50
2022-07-25T16:32:52.207Z,4.45
2022-07-25T16:35:23.837Z,4.38
2022-07-25T16:37:50.955Z,4.32
2022-07-25T16:40:17.540Z,4.70
2022-07-25T16:42:44.158Z,4.20
2022-07-25T16:45:13.303Z,4.15
2022-07-25T16:47:40.950Z,4.55
2022-07-25T16:50:07.695Z,4.90
2022-07-25T16:52:36.628Z,4.25
2022-07-25T16:55:05.518Z,4.57
2022-07-25T16:57:32.188Z,4.88
2022-07-25T17:00:00.657Z,4.45
2022-07-25T17:02:32.205Z,4.90
2022-07-25T17:04:58.708Z,4.65
2022-07-25T17:07:28.974Z,4.53
2022-07-25T17:09:55.395Z,4.30
2022-07-25T17:12:24.146Z,4.57
2022-07-25T17:14:50.638Z,5.03
2022-07-25T17:17:17.145Z,4.35
2022-07-25T17:19:43.895Z,4.50
2022-07-25T17:22:15.850Z,4.45
2022-07-25T17:24:44.595Z,4.55
2022-07-25T17:27:11.237Z,4.15
2022-07-25T17:29:37.773Z,4.20
2022-07-25T17:32:07.092Z,4.25
2022-07-25T17:34:33.752Z,3.97
2022-07-25T17:37:03.167Z,4.40
2022-07-25T17:39:33.311Z,3.72
2022-07-25T17:42:00.535Z,4.10
2022-07-25T17:44:27.095Z,4.68
2022-07-25T17:46:56.466Z,4.15
2022-07-25T17:49:22.992Z,4.25
2022-07-25T17:51:51.845Z,3.88
2022-07-25T17:54:18.378Z,4.20
2022-07-25T17:56:45.468Z,4.65
2022-07-25T17:59:11.959Z,4.18
2022-07-25T18:01:39.895Z,3.83
2022-07-25T18:04:06.808Z,3.83
2022-07-25T18:06:33.531Z,3.70
2022-07-25T18:08:59.976Z,3.90
2022-07-25T18:11:31.384Z,3.60
2022-07-25T18:13:59.395Z,4.30
2022-07-25T18:16:30.733Z,4.45
2022-07-25T18:18:57.245Z,3.75
2022-07-25T18:21:24.447Z,4.03
2022-07-25T18:23:53.115Z,3.97
2022-07-25T18:26:21.719Z,4.30
2022-07-25T18:28:53.045Z,3.63
2022-07-25T18:31:22.195Z,4.45
2022-07-25T18:33:51.550Z,4.13
2022-07-25T18:36:20.543Z,4.20
2022-07-25T18:38:48.304Z,3.50
2022-07-25T18:41:30.628Z,3.65
2022-07-25T18:44:02.220Z,4.10
2022-07-25T18:46:32.824Z,3.22
2022-07-25T18:49:01.866Z,3.47
2022-07-25T18:51:30.810Z,4.00
2022-07-25T18:53:57.219Z,3.67
2022-07-25T18:56:25.776Z,3.63
2022-07-25T18:58:54.490Z,3.70
2022-07-25T19:01:21.121Z,2.97
2022-07-25T19:03:50.025Z,3.65
2022-07-25T19:06:16.466Z,3.50
2022-07-25T19:08:43.845Z,3.00
2022-07-25T19:11:10.478Z,2.53
2022-07-25T19:13:49.683Z,3.30
2022-07-25T19:16:17.535Z,2.72
2022-07-25T19:18:44.132Z,2.65
2022-07-25T19:21:10.629Z,2.53
2022-07-25T19:23:39.333Z,2.42
2022-07-25T19:26:08.113Z,2.63
2022-07-25T19:28:35.631Z,2.50
2022-07-25T19:31:04.865Z,2.53
2022-07-25T19:33:35.717Z,2.33
2022-07-25T19:36:07.556Z,2.42
2022-07-25T19:38:37.264Z,1.90
2022-07-25T19:41:03.815Z,2.30
2022-07-25T19:43:30.340Z,2.25
2022-07-25T19:45:56.776Z,2.10
2022-07-25T19:48:25.579Z,1.80
2022-07-25T19:50:54.836Z,2.30
2022-07-25T19:53:24.261Z,1.52
2022-07-25T19:55:54.704Z,1.60
2022-07-25T19:58:21.143Z,1.77
2022-07-25T20:00:50.441Z,2.20
2022-07-25T20:03:23.246Z,1.73
2022-07-25T20:05:50.305Z,1.98
2022-07-25T20:08:16.721Z,1.65
2022-07-25T20:10:43.229Z,1.60
2022-07-25T20:13:11.912Z,1.58
2022-07-25T20:15:38.383Z,1.50
2022-07-25T20:18:04.831Z,1.48
2022-07-25T20:20:31.295Z,2.00
2022-07-25T20:22:57.827Z,1.30
2022-07-25T20:25:29.032Z,1.67
2022-07-25T20:27:55.778Z,1.52
2022-07-25T20:30:29.330Z,1.80
2022-07-25T20:32:59.468Z,1.80
2022-07-25T20:35:33.724Z,1.42
2022-07-25T20:38:01.517Z,1.38
2022-07-25T20:40:31.276Z,1.60
2022-07-25T20:42:59.197Z,1.15
2022-07-25T20:45:25.702Z,1.60
2022-07-25T20:47:57.160Z,1.70
2022-07-25T20:50:23.585Z,1.70
2022-07-25T20:52:55.036Z,1.38
2022-07-25T20:55:22.244Z,1.45
2022-07-25T20:57:51.248Z,1.35
2022-07-25T21:00:22.950Z,1.27
2022-07-25T21:02:49.523Z,1.15
2022-07-25T21:05:16.254Z,1.38
2022-07-25T21:07:42.784Z,1.40
2022-07-25T21:10:14.574Z,1.50
2022-07-25T21:12:41.037Z,1.40
2022-07-25T21:15:08.445Z,1.50
2022-07-25T21:17:37.212Z,1.15
2022-07-25T21:20:06.674Z,1.35
2022-07-25T21:22:33.166Z,1.33
2022-07-25T21:25:01.856Z,1.38
2022-07-25T21:27:28.398Z,1.27
2022-07-25T21:29:54.865Z,1.52
2022-07-25T21:32:22.026Z,1.20
2022-07-25T21:34:49.793Z,1.00
2022-07-25T21:37:16.682Z,1.20
2022-07-25T21:39:43.844Z,1.00
2022-07-25T21:42:10.988Z,1.10
2022-07-25T21:44:41.426Z,1.08
2022-07-25T21:47:11.177Z,1.20
2022-07-25T21:50:13.240Z,1.35
2022-07-25T21:52:49.655Z,1.10
2022-07-25T21:55:16.214Z,1.05
2022-07-25T21:57:42.733Z,1.08
2022-07-25T22:00:17.243Z,1.10
2022-07-25T22:02:49.523Z,1.25
2022-07-25T22:05:17.003Z,1.10
2022-07-25T22:07:45.547Z,1.15
2022-07-25T22:10:16.589Z,1.10
2022-07-25T22:12:45.480Z,1.00
2022-07-25T22:15:14.999Z,1.10
2022-07-25T22:17:49.356Z,1.33
2022-07-25T22:20:19.441Z,1.10
2022-07-25T22:22:47.535Z,1.25
2022-07-25T22:25:14.085Z,1.17
2022-07-25T22:27:40.547Z,1.10
2022-07-25T22:30:07.742Z,1.15
2022-07-25T22:32:34.173Z,1.20
2022-07-25T22:35:00.657Z,1.20
2022-07-25T22:37:32.662Z,1.40
2022-07-25T22:40:01.887Z,1.00
2022-07-25T22:42:28.334Z,1.25
2022-07-25T22:44:54.773Z,1.27
2022-07-25T22:47:21.157Z,1.25
2022-07-25T22:49:52.504Z,1.20
2022-07-25T22:52:18.929Z,1.00
2022-07-25T22:54:45.421Z,1.38
2022-07-25T22:57:11.847Z,1.40
2022-07-25T22:59:38.291Z,1.00
2022-07-25T23:02:05.106Z,1.00
2022-07-25T23:04:35.202Z,1.05
2022-07-25T23:07:01.726Z,1.15
2022-07-25T23:09:36.183Z,1.13
2022-07-25T23:12:06.877Z,1.40
2022-07-25T23:14:33.316Z,1.00
2022-07-25T23:17:17.770Z,0.98
2022-07-25T23:19:44.991Z,0.95
2022-07-25T23:22:13.478Z,0.80
2022-07-25T23:24:40.044Z,1.10
2022-07-25T23:27:07.000Z,1.10
2022-07-25T23:29:33.484Z,1.08
2022-07-25T23:32:00.009Z,1.10
2022-07-25T23:34:26.610Z,1.10
2022-07-25T23:36:57.646Z,1.23
2022-07-25T23:39:24.129Z,1.20
2022-07-25T23:41:50.588Z,1.27
2022-07-25T23:44:19.364Z,0.82
2022-07-25T23:46:46.311Z,0.90
2022-07-25T23:49:13.513Z,1.00
2022-07-25T23:51:40.273Z,0.70
2022-07-25T23:54:08.948Z,1.00
2022-07-25T23:56:37.815Z,0.80
2022-07-25T23:59:06.805Z,0.70
